地図

経路データ

SID SEASON NUMBER BASIN SUBBASIN NAME ISO_TIME NATURE LAT LON WMO_WIND WMO_PRES WMO_AGENCY TRACK_TYPE DIST2LAND LANDFALL IFLAG USA_AGENCY USA_ATCF_ID USA_LAT USA_LON USA_RECORD USA_STATUS USA_WIND USA_PRES USA_SSHS USA_R34_NE USA_R34_SE USA_R34_SW USA_R34_NW USA_R50_NE USA_R50_SE USA_R50_SW USA_R50_NW USA_R64_NE USA_R64_SE USA_R64_SW USA_R64_NW USA_POCI USA_ROCI USA_RMW USA_EYE TOKYO_LAT TOKYO_LON TOKYO_GRADE TOKYO_WIND TOKYO_PRES TOKYO_R50_DIR TOKYO_R50_LONG TOKYO_R50_SHORT TOKYO_R30_DIR TOKYO_R30_LONG TOKYO_R30_SHORT TOKYO_LAND CMA_LAT CMA_LON CMA_CAT CMA_WIND CMA_PRES HKO_LAT HKO_LON HKO_CAT HKO_WIND HKO_PRES NEWDELHI_LAT NEWDELHI_LON NEWDELHI_GRADE NEWDELHI_WIND NEWDELHI_PRES NEWDELHI_CI NEWDELHI_DP NEWDELHI_POCI REUNION_LAT REUNION_LON REUNION_TYPE REUNION_WIND REUNION_PRES REUNION_TNUM REUNION_CI REUNION_RMW REUNION_R34_NE REUNION_R34_SE REUNION_R34_SW REUNION_R34_NW REUNION_R50_NE REUNION_R50_SE REUNION_R50_SW REUNION_R50_NW REUNION_R64_NE REUNION_R64_SE REUNION_R64_SW REUNION_R64_NW BOM_LAT BOM_LON BOM_TYPE BOM_WIND BOM_PRES BOM_TNUM BOM_CI BOM_RMW BOM_R34_NE BOM_R34_SE BOM_R34_SW BOM_R34_NW BOM_R50_NE BOM_R50_SE BOM_R50_SW BOM_R50_NW BOM_R64_NE BOM_R64_SE BOM_R64_SW BOM_R64_NW BOM_ROCI BOM_POCI BOM_EYE BOM_POS_METHOD BOM_PRES_METHOD NADI_LAT NADI_LON NADI_CAT NADI_WIND NADI_PRES WELLINGTON_LAT WELLINGTON_LON WELLINGTON_WIND WELLINGTON_PRES DS824_LAT DS824_LON DS824_STAGE DS824_WIND DS824_PRES TD9636_LAT TD9636_LON TD9636_STAGE TD9636_WIND TD9636_PRES TD9635_LAT TD9635_LON TD9635_WIND TD9635_PRES TD9635_ROCI NEUMANN_LAT NEUMANN_LON NEUMANN_CLASS NEUMANN_WIND NEUMANN_PRES MLC_LAT MLC_LON MLC_CLASS MLC_WIND MLC_PRES USA_GUST BOM_GUST BOM_GUST_PER REUNION_GUST REUNION_GUST_PER USA_SEAHGT USA_SEARAD_NE USA_SEARAD_SE USA_SEARAD_SW USA_SEARAD_NW STORM_SPEED STORM_DIR
1960202N16257 1960 38 EP MM CELESTE 1960-07-20 00:00:00 TS 15.9000 -103.300 75 hurdat_epa main 246 243 O________OO___ hurdat_epa EP031960 15.9000 -103.300 HU 75 1 15.9000 -103.300 TC 75 15.9000 -103.300 4 8 291
1960202N16257 1960 38 EP MM CELESTE 1960-07-20 03:00:00 TS 16.0484 -103.706 main 249 239 P________PP___ EP031960 16.0426 -103.695 HU 75 1 16.0426 -103.695 TC 75 16.0717 -103.750 4 8 291
1960202N16257 1960 38 EP MM CELESTE 1960-07-20 06:00:00 TS 16.2089 -104.116 75 hurdat_epa main 243 235 O________OP___ hurdat_epa EP031960 16.2000 -104.100 HU 75 1 16.2000 -104.100 TC 75 16.2444 -104.181 4 9 294
1960202N16257 1960 38 EP MM CELESTE 1960-07-20 09:00:00 TS 16.3920 -104.526 main 237 234 P________PP___ EP031960 16.3850 -104.515 HU 75 1 16.3850 -104.515 TC 75 16.4198 -104.571 4 8 297
1960202N16257 1960 38 EP MM CELESTE 1960-07-20 12:00:00 TS 16.6000 -104.900 75 hurdat_epa main 241 238 O________OO___ hurdat_epa EP031960 16.6000 -104.900 HU 75 1 16.6000 -104.900 TC 75 16.6000 -104.900 4 8 304
1960202N16257 1960 38 EP MM CELESTE 1960-07-20 15:00:00 TS 16.8319 -105.199 main 246 238 P________PP___ EP031960 16.8424 -105.208 HU 75 1 16.8424 -105.208 TC 75 16.7902 -105.163 4 7 311
1960202N16257 1960 38 EP MM CELESTE 1960-07-20 18:00:00 TS 17.0815 -105.484 75 hurdat_epa main 246 232 O________OP___ hurdat_epa EP031960 17.1000 -105.500 HU 75 1 17.1000 -105.500 TC 75 17.0073 -105.419 4 7 311
1960202N16257 1960 38 EP MM CELESTE 1960-07-20 21:00:00 TS 17.3037 -105.763 main 237 225 P________PP___ EP031960 17.3119 -105.768 HU 75 1 17.3119 -105.768 TC 75 17.2708 -105.739 4 9 307
1960202N16257 1960 38 EP MM CELESTE 1960-07-21 00:00:00 TS 17.6000 -106.200 75 hurdat_epa main 232 230 O________OO___ hurdat_epa EP031960 17.6000 -106.200 HU 75 1 17.6000 -106.200 TC 75 17.6000 -106.200 4 14 303
1960202N16257 1960 38 EP MM CELESTE 1960-07-21 03:00:00 TS 18.0629 -106.966 main 253 253 P________PP___ EP031960 18.0704 -106.975 HU 75 1 18.0704 -106.975 TC 75 18.0330 -106.933 4 19 302
1960202N16257 1960 38 EP MM CELESTE 1960-07-21 06:00:00 TS 18.5847 -107.881 75 hurdat_epa main 296 296 O________OP___ hurdat_epa EP031960 18.6000 -107.900 HU 75 1 18.6000 -107.900 TC 75 18.5235 -107.806 4 20 300
1960202N16257 1960 38 EP MM CELESTE 1960-07-21 09:00:00 TS 19.0634 -108.775 main 355 355 P________PP___ EP031960 19.0726 -108.788 HU 75 1 19.0726 -108.788 TC 75 19.0269 -108.727 4 19 299
1960202N16257 1960 38 EP MM CELESTE 1960-07-21 12:00:00 TS 19.5000 -109.600 75 hurdat_epa main 380 336 O________OO___ hurdat_epa EP031960 19.5000 -109.600 HU 75 1 19.5000 -109.600 TC 75 19.5000 -109.600 4 16 300
1960202N16257 1960 38 EP MM CELESTE 1960-07-21 15:00:00 TS 19.8723 -110.243 main 336 310 P________PP___ EP031960 19.8643 -110.231 HU 75 1 19.8643 -110.231 TC 75 19.9042 -110.291 4 14 302
1960202N16257 1960 38 EP MM CELESTE 1960-07-21 18:00:00 TS 20.2145 -110.824 75 hurdat_epa main 313 294 O________OP___ hurdat_epa EP031960 20.2000 -110.800 HU 75 1 20.2000 -110.800 TC 75 20.2724 -110.919 4 13 301
1960202N16257 1960 38 EP MM CELESTE 1960-07-21 21:00:00 TS 20.5728 -111.463 main 300 296 P________PP___ EP031960 20.5649 -111.450 HU 75 1 20.5649 -111.450 TC 75 20.6045 -111.513 4 14 300
1960202N16257 1960 38 EP MM CELESTE 1960-07-22 00:00:00 TS 20.9000 -112.100 75 hurdat_epa main 311 310 O________OO___ hurdat_epa EP031960 20.9000 -112.100 HU 75 1 20.9000 -112.100 TC 75 20.9000 -112.100 4 13 297
1960202N16257 1960 38 EP MM CELESTE 1960-07-22 03:00:00 TS 21.1696 -112.701 main 336 336 P________PP___ EP031960 21.1721 -112.700 HU 75 1 21.1721 -112.700 TC 75 21.1596 -112.704 4 12 294
1960202N16257 1960 38 EP MM CELESTE 1960-07-22 06:00:00 TS 21.3985 -113.304 75 hurdat_epa main 376 376 O________OP___ hurdat_epa EP031960 21.4000 -113.300 HU 75 1 21.4000 -113.300 TC 75 21.3903 -113.326 4 12 291
1960202N16257 1960 38 EP MM CELESTE 1960-07-22 09:00:00 TS 21.6065 -113.938 main 388 388 P________PP___ EP031960 21.6072 -113.935 HU 62 0 21.6072 -113.935 TC 62 21.6008 -113.960 4 13 288
1960202N16257 1960 38 EP MM CELESTE 1960-07-22 12:00:00 TS 21.8000 -114.600 50 hurdat_epa main 412 412 O________OO___ hurdat_epa EP031960 21.8000 -114.600 TS 50 0 21.8000 -114.600 TC 50 21.8000 -114.600 4 13 287
1960202N16257 1960 38 EP MM CELESTE 1960-07-22 15:00:00 TS 21.9981 -115.292 main 444 444 P________P____ EP031960 21.9981 -115.292 TS 50 0 21.9981 -115.292 TC 50 4 14 287
1960202N16257 1960 38 EP MM CELESTE 1960-07-22 18:00:00 TS 22.2000 -116.000 50 hurdat_epa main 484 O________O____ hurdat_epa EP031960 22.2000 -116.000 TS 50 0 22.2000 -116.000 TC 50 4 14 287

IBTrACS Databaseについて

本データベースは、米国NOAAが公開する1842年以降の世界の熱帯低気圧のベストトラックデータアーカイブInternational Best Track Archive for Climate Stewardship (IBTrACS)を、ウェブで閲覧しやすい形式に変換したものです。

最終更新日:2021-10-21